createdAt,value
2017-10-29T00:00:47.740Z,0
2017-10-29T00:01:47.029Z,0
2017-10-29T00:02:47.352Z,0
2017-10-29T00:03:46.672Z,0
2017-10-29T00:04:47.002Z,0
2017-10-29T00:05:47.645Z,0
2017-10-29T00:06:46.965Z,0
2017-10-29T00:07:46.946Z,0
2017-10-29T00:08:46.926Z,0
2017-10-29T00:09:46.906Z,0
2017-10-29T00:10:47.244Z,0
2017-10-29T00:11:46.880Z,0
2017-10-29T00:12:47.209Z,0
2017-10-29T00:13:46.517Z,0
2017-10-29T00:14:47.500Z,0
2017-10-29T00:15:46.488Z,0
2017-10-29T00:16:46.811Z,0
2017-10-29T00:17:46.791Z,0
2017-10-29T00:18:46.773Z,0
2017-10-29T00:19:46.760Z,0
2017-10-29T00:20:47.072Z,0
2017-10-29T00:21:47.063Z,0
2017-10-29T00:22:46.710Z,0
2017-10-29T00:23:46.708Z,0
2017-10-29T00:24:47.350Z,0
2017-10-29T00:25:47.335Z,0
2017-10-29T00:26:46.992Z,0
2017-10-29T00:27:46.648Z,0
2017-10-29T00:28:46.619Z,0
2017-10-29T00:29:47.275Z,0
2017-10-29T00:30:46.592Z,0
2017-10-29T00:31:46.917Z,0
2017-10-29T00:32:46.910Z,0
2017-10-29T00:33:46.543Z,0
2017-10-29T00:34:46.860Z,0
2017-10-29T00:35:46.511Z,0
2017-10-29T00:36:46.512Z,0
2017-10-29T00:37:46.155Z,0
2017-10-29T00:38:46.485Z,0
2017-10-29T00:39:46.460Z,0
2017-10-29T00:40:46.772Z,0
2017-10-29T00:41:47.094Z,0
2017-10-29T00:42:46.470Z,0
2017-10-29T00:43:46.448Z,0
2017-10-29T00:44:46.384Z,0
2017-10-29T00:45:47.122Z,0
2017-10-29T00:46:46.909Z,0
2017-10-29T00:47:46.420Z,0
2017-10-29T00:48:46.518Z,0
2017-10-29T00:49:45.970Z,0
2017-10-29T00:50:46.969Z,0
2017-10-29T00:51:45.936Z,0
2017-10-29T00:52:46.264Z,0
2017-10-29T00:53:46.910Z,0
2017-10-29T00:54:45.897Z,0
2017-10-29T00:55:46.545Z,0
2017-10-29T00:56:45.853Z,0
2017-10-29T00:57:46.183Z,0
2017-10-29T00:58:46.501Z,0
2017-10-29T00:59:46.166Z,0
2017-10-29T01:00:46.811Z,0
2017-10-29T01:01:46.130Z,0
2017-10-29T01:02:46.122Z,0
2017-10-29T01:03:46.444Z,0
2017-10-29T01:04:46.077Z,0
2017-10-29T01:05:45.726Z,0
2017-10-29T01:06:45.708Z,0
2017-10-29T01:07:46.036Z,0
2017-10-29T01:08:46.691Z,0
2017-10-29T01:09:45.668Z,0
2017-10-29T01:10:46.327Z,0
2017-10-29T01:11:45.973Z,0
2017-10-29T01:12:45.964Z,0
2017-10-29T01:13:45.939Z,0
2017-10-29T01:14:46.632Z,0
2017-10-29T01:15:46.273Z,0
2017-10-29T01:16:46.580Z,0
2017-10-29T01:17:46.212Z,0
2017-10-29T01:18:46.197Z,0
2017-10-29T01:19:46.177Z,0
2017-10-29T01:20:45.499Z,0
2017-10-29T01:21:45.819Z,0
2017-10-29T01:22:45.490Z,0
2017-10-29T01:23:45.808Z,0
2017-10-29T01:24:45.766Z,0
2017-10-29T01:25:45.430Z,0
2017-10-29T01:26:45.738Z,0
2017-10-29T01:27:45.392Z,0
2017-10-29T01:28:46.055Z,0
2017-10-29T01:29:46.113Z,0
2017-10-29T01:30:45.691Z,0
2017-10-29T01:31:45.676Z,0
2017-10-29T01:32:46.010Z,0
2017-10-29T01:33:45.635Z,0
2017-10-29T01:34:45.638Z,0
2017-10-29T01:35:45.604Z,0
2017-10-29T01:36:45.921Z,0
2017-10-29T01:37:46.238Z,0
2017-10-29T01:38:45.907Z,0
2017-10-29T01:39:45.535Z,0
2017-10-29T01:40:45.522Z,0
2017-10-29T01:41:45.843Z,0
2017-10-29T01:42:45.845Z,0
2017-10-29T01:43:46.153Z,0
2017-10-29T01:44:46.148Z,0
2017-10-29T01:45:45.782Z,0
2017-10-29T01:46:46.129Z,0
2017-10-29T01:47:45.466Z,0
2017-10-29T01:48:45.073Z,0
2017-10-29T01:49:45.388Z,0
2017-10-29T01:50:45.040Z,0
2017-10-29T01:51:45.699Z,0
2017-10-29T01:52:45.691Z,0
2017-10-29T01:53:46.011Z,0
2017-10-29T01:54:44.987Z,0
2017-10-29T01:55:45.296Z,0
2017-10-29T01:56:45.626Z,0
2017-10-29T01:57:45.611Z,0
2017-10-29T01:58:45.610Z,0
2017-10-29T01:59:44.897Z,0
2017-10-29T02:00:45.235Z,0
2017-10-29T02:01:45.219Z,0
2017-10-29T02:02:45.865Z,0
2017-10-29T02:03:45.514Z,0
2017-10-29T02:04:45.164Z,0
2017-10-29T02:05:45.485Z,0
2017-10-29T02:06:45.455Z,0
2017-10-29T02:07:45.110Z,0
2017-10-29T02:08:45.120Z,0
2017-10-29T02:09:45.761Z,0
2017-10-29T02:10:45.727Z,0
2017-10-29T02:11:44.726Z,0
2017-10-29T02:12:45.402Z,0
2017-10-29T02:13:44.687Z,0
2017-10-29T02:14:45.005Z,0
2017-10-29T02:15:44.663Z,0
2017-10-29T02:16:44.672Z,0
2017-10-29T02:17:45.294Z,0
2017-10-29T02:18:44.625Z,0
2017-10-29T02:19:44.257Z,0
2017-10-29T02:20:44.916Z,0
2017-10-29T02:21:45.224Z,0
2017-10-29T02:22:44.895Z,0
2017-10-29T02:23:44.876Z,0
2017-10-29T02:24:45.197Z,0
2017-10-29T02:25:45.170Z,0
2017-10-29T02:26:45.492Z,0
2017-10-29T02:27:44.815Z,0
2017-10-29T02:28:44.785Z,0
2017-10-29T02:29:45.110Z,0
2017-10-29T02:30:44.759Z,0
2017-10-29T02:31:45.084Z,0
2017-10-29T02:32:45.060Z,0
2017-10-29T02:33:44.419Z,0
2017-10-29T02:34:44.374Z,0
2017-10-29T02:35:44.687Z,0
2017-10-29T02:36:44.671Z,0
2017-10-29T02:37:43.995Z,0
2017-10-29T02:38:44.313Z,0
2017-10-29T02:39:44.962Z,0
2017-10-29T02:40:44.956Z,0
2017-10-29T02:41:44.606Z,0
2017-10-29T02:42:44.927Z,0
2017-10-29T02:43:44.902Z,0
2017-10-29T02:44:44.879Z,0
2017-10-29T02:45:44.198Z,0
2017-10-29T02:46:44.870Z,0
2017-10-29T02:47:44.517Z,0
2017-10-29T02:48:44.482Z,0
2017-10-29T02:49:44.812Z,0
2017-10-29T02:50:44.795Z,0
2017-10-29T02:51:44.794Z,0
2017-10-29T02:52:45.102Z,0
2017-10-29T02:53:44.750Z,0
2017-10-29T02:54:44.733Z,0
2017-10-29T02:55:44.741Z,0
2017-10-29T02:56:44.027Z,0
2017-10-29T02:57:45.031Z,0
2017-10-29T02:58:44.678Z,0
2017-10-29T02:59:45.012Z,0
2017-10-29T03:00:44.650Z,0
2017-10-29T03:01:43.966Z,0
2017-10-29T03:02:43.604Z,0
2017-10-29T03:03:43.928Z,0
2017-10-29T03:04:44.626Z,0
2017-10-29T03:05:44.574Z,0
2017-10-29T03:06:44.250Z,0
2017-10-29T03:07:44.531Z,0
2017-10-29T03:08:43.846Z,0
2017-10-29T03:09:44.182Z,0
2017-10-29T03:10:44.161Z,0
2017-10-29T03:11:44.484Z,0
2017-10-29T03:12:44.798Z,0
2017-10-29T03:13:44.112Z,0
2017-10-29T03:14:44.428Z,0
2017-10-29T03:15:44.417Z,0
2017-10-29T03:16:44.418Z,0
2017-10-29T03:17:44.376Z,0
2017-10-29T03:18:44.034Z,0
2017-10-29T03:19:44.398Z,0
2017-10-29T03:20:44.323Z,0
2017-10-29T03:21:43.987Z,0
2017-10-29T03:22:43.968Z,0
2017-10-29T03:23:43.617Z,0
2017-10-29T03:24:43.613Z,0
2017-10-29T03:25:43.942Z,0
2017-10-29T03:26:44.445Z,0
2017-10-29T03:27:44.126Z,0
2017-10-29T03:28:43.537Z,0
2017-10-29T03:29:44.305Z,0
2017-10-29T03:30:43.587Z,0
2017-10-29T03:31:44.167Z,0
2017-10-29T03:32:44.146Z,0
2017-10-29T03:33:44.147Z,0
2017-10-29T03:34:43.492Z,0
2017-10-29T03:35:43.795Z,0
2017-10-29T03:36:43.765Z,0
2017-10-29T03:37:44.404Z,0
2017-10-29T03:38:44.056Z,0
2017-10-29T03:39:44.057Z,0
2017-10-29T03:40:43.708Z,0
2017-10-29T03:41:44.346Z,0
2017-10-29T03:42:43.659Z,0
2017-10-29T03:43:43.636Z,0
2017-10-29T03:44:43.666Z,0
2017-10-29T03:45:43.599Z,0
2017-10-29T03:46:43.584Z,0
2017-10-29T03:47:43.916Z,0
2017-10-29T03:48:43.894Z,0
2017-10-29T03:49:43.599Z,0
2017-10-29T03:50:43.195Z,0
2017-10-29T03:51:43.531Z,0
2017-10-29T03:52:42.829Z,0
2017-10-29T03:53:43.818Z,0
2017-10-29T03:54:43.131Z,0
2017-10-29T03:55:43.127Z,0
2017-10-29T03:56:43.109Z,0
2017-10-29T03:57:43.757Z,0
2017-10-29T03:58:43.399Z,0
2017-10-29T03:59:43.050Z,0
2017-10-29T04:00:43.749Z,0
2017-10-29T04:01:43.373Z,0
2017-10-29T04:02:44.015Z,0
2017-10-29T04:03:43.326Z,0
2017-10-29T04:04:43.313Z,0
2017-10-29T04:05:43.287Z,0
2017-10-29T04:06:43.276Z,0
2017-10-29T04:07:42.596Z,0
2017-10-29T04:08:43.580Z,0
2017-10-29T04:09:43.573Z,0
2017-10-29T04:10:43.541Z,0
2017-10-29T04:11:43.191Z,0
2017-10-29T04:12:42.842Z,0
2017-10-29T04:13:43.848Z,0
2017-10-29T04:14:42.818Z,0
2017-10-29T04:15:43.144Z,0
2017-10-29T04:16:43.112Z,0
2017-10-29T04:17:42.773Z,0
2017-10-29T04:18:43.757Z,0
2017-10-29T04:19:43.400Z,0
2017-10-29T04:20:43.396Z,0
2017-10-29T04:21:43.038Z,0
2017-10-29T04:22:43.558Z,0
2017-10-29T04:23:43.015Z,0
2017-10-29T04:24:42.993Z,0
2017-10-29T04:25:43.296Z,0
2017-10-29T04:26:43.288Z,0
2017-10-29T04:27:42.614Z,0
2017-10-29T04:28:42.581Z,0
2017-10-29T04:29:43.577Z,0
2017-10-29T04:30:42.886Z,0
2017-10-29T04:31:42.882Z,0
2017-10-29T04:32:43.206Z,0
2017-10-29T04:33:43.172Z,0
2017-10-29T04:34:43.152Z,0
2017-10-29T04:35:42.810Z,0
2017-10-29T04:36:42.785Z,0
2017-10-29T04:37:43.150Z,0
2017-10-29T04:38:43.094Z,0
2017-10-29T04:39:42.743Z,0
2017-10-29T04:40:42.724Z,0
2017-10-29T04:41:42.707Z,0
2017-10-29T04:42:42.693Z,0
2017-10-29T04:43:43.366Z,0
2017-10-29T04:44:42.668Z,0
2017-10-29T04:45:42.189Z,0
2017-10-29T04:46:42.642Z,0
2017-10-29T04:47:42.289Z,0
2017-10-29T04:48:43.292Z,0
2017-10-29T04:49:42.598Z,0
2017-10-29T04:50:42.571Z,0
2017-10-29T04:51:43.219Z,0
2017-10-29T04:52:42.541Z,0
2017-10-29T04:53:42.526Z,0
2017-10-29T04:54:42.518Z,0
2017-10-29T04:55:42.681Z,0
2017-10-29T04:56:42.461Z,0
2017-10-29T04:57:42.841Z,0
2017-10-29T04:58:42.088Z,0
2017-10-29T04:59:42.111Z,0
2017-10-29T05:00:42.734Z,0
2017-10-29T05:01:42.922Z,0
2017-10-29T05:02:42.700Z,0
2017-10-29T05:03:42.690Z,0
2017-10-29T05:04:42.337Z,0
2017-10-29T05:05:42.992Z,0
2017-10-29T05:06:42.305Z,0
2017-10-29T05:07:42.298Z,0
2017-10-29T05:08:42.598Z,0
2017-10-29T05:09:42.602Z,0
2017-10-29T05:10:42.569Z,0
2017-10-29T05:11:42.220Z,0
2017-10-29T05:12:43.108Z,0
2017-10-29T05:13:41.850Z,0
2017-10-29T05:14:41.858Z,0
2017-10-29T05:15:42.154Z,0
2017-10-29T05:16:41.814Z,0
2017-10-29T05:17:42.480Z,0
2017-10-29T05:18:42.109Z,0
2017-10-29T05:19:41.766Z,0
2017-10-29T05:20:42.422Z,0
2017-10-29T05:21:41.746Z,0
2017-10-29T05:22:42.050Z,0
2017-10-29T05:23:41.370Z,0
2017-10-29T05:24:42.017Z,0
2017-10-29T05:25:41.659Z,0
2017-10-29T05:26:42.084Z,0
2017-10-29T05:27:42.629Z,0
2017-10-29T05:28:41.935Z,0
2017-10-29T05:29:42.266Z,0
2017-10-29T05:30:42.469Z,0
2017-10-29T05:31:41.553Z,0
2017-10-29T05:32:42.544Z,0
2017-10-29T05:33:42.204Z,0
2017-10-29T05:34:42.181Z,0
2017-10-29T05:35:41.833Z,0
2017-10-29T05:36:42.153Z,0
2017-10-29T05:37:41.817Z,0
2017-10-29T05:38:42.107Z,0
2017-10-29T05:39:42.090Z,0
2017-10-29T05:40:42.073Z,0
2017-10-29T05:41:42.171Z,0
2017-10-29T05:42:42.052Z,0
2017-10-29T05:43:41.370Z,0
2017-10-29T05:44:42.357Z,0
2017-10-29T05:45:41.997Z,0
2017-10-29T05:46:41.313Z,0
2017-10-29T05:47:41.639Z,0
2017-10-29T05:48:41.616Z,0
2017-10-29T05:49:41.943Z,0
2017-10-29T05:50:41.567Z,0
2017-10-29T05:51:41.558Z,0
2017-10-29T05:52:41.543Z,0
2017-10-29T05:53:41.194Z,0
2017-10-29T05:54:41.208Z,0
2017-10-29T05:55:41.165Z,0
2017-10-29T05:56:41.819Z,0
2017-10-29T05:57:42.151Z,0
2017-10-29T05:58:41.115Z,0
2017-10-29T05:59:42.100Z,0
2017-10-29T06:00:41.986Z,0
2017-10-29T06:01:41.738Z,0
2017-10-29T06:02:41.729Z,0
2017-10-29T06:03:41.687Z,0
2017-10-29T06:04:41.363Z,0
2017-10-29T06:05:40.994Z,0
2017-10-29T06:06:42.093Z,0
2017-10-29T06:07:41.979Z,0
2017-10-29T06:08:41.618Z,0
2017-10-29T06:09:40.928Z,0
2017-10-29T06:10:40.910Z,0
2017-10-29T06:11:41.283Z,0
2017-10-29T06:12:41.221Z,0
2017-10-29T06:13:41.536Z,0
2017-10-29T06:14:41.186Z,0
2017-10-29T06:15:40.825Z,0
2017-10-29T06:16:40.811Z,0
2017-10-29T06:17:40.893Z,0
2017-10-29T06:18:41.785Z,0
2017-10-29T06:19:41.093Z,0
2017-10-29T06:20:41.771Z,5
2017-10-29T06:21:41.410Z,5
2017-10-29T06:22:40.376Z,5
2017-10-29T06:23:41.031Z,5
2017-10-29T06:24:41.025Z,5
2017-10-29T06:25:41.680Z,5
2017-10-29T06:26:40.662Z,5
2017-10-29T06:27:41.313Z,5
2017-10-29T06:28:41.282Z,5
2017-10-29T06:29:41.276Z,10
2017-10-29T06:30:40.920Z,10
2017-10-29T06:31:40.938Z,10
2017-10-29T06:32:41.215Z,10
2017-10-29T06:33:40.871Z,10
2017-10-29T06:34:41.061Z,10
2017-10-29T06:35:40.834Z,15
2017-10-29T06:36:41.485Z,15
2017-10-29T06:37:40.802Z,15
2017-10-29T06:38:41.443Z,15
2017-10-29T06:39:40.756Z,15
2017-10-29T06:40:40.743Z,15
2017-10-29T06:41:41.056Z,15
2017-10-29T06:42:40.704Z,20
2017-10-29T06:43:40.707Z,20
2017-10-29T06:44:40.668Z,20
2017-10-29T06:45:41.014Z,25
2017-10-29T06:46:40.993Z,20
2017-10-29T06:47:40.627Z,20
2017-10-29T06:48:40.280Z,25
2017-10-29T06:49:40.920Z,25
2017-10-29T06:50:40.580Z,25
2017-10-29T06:51:41.222Z,25
2017-10-29T06:52:40.586Z,25
2017-10-29T06:53:40.536Z,25
2017-10-29T06:54:40.840Z,30
2017-10-29T06:55:41.165Z,35
2017-10-29T06:56:40.134Z,30
2017-10-29T06:57:40.791Z,30
2017-10-29T06:58:41.109Z,35
2017-10-29T06:59:40.086Z,35
2017-10-29T07:00:40.735Z,35
2017-10-29T07:01:40.728Z,40
2017-10-29T07:02:40.368Z,40
2017-10-29T07:03:40.356Z,40
2017-10-29T07:04:40.350Z,40
2017-10-29T07:05:40.652Z,40
2017-10-29T07:06:40.632Z,45
2017-10-29T07:07:40.631Z,50
2017-10-29T07:08:40.270Z,50
2017-10-29T07:09:40.263Z,50
2017-10-29T07:10:40.243Z,50
2017-10-29T07:11:40.575Z,50
2017-10-29T07:12:40.538Z,50
2017-10-29T07:13:40.178Z,45
2017-10-29T07:14:40.515Z,45
2017-10-29T07:15:40.849Z,45
2017-10-29T07:16:40.800Z,45
2017-10-29T07:17:40.780Z,45
2017-10-29T07:18:40.102Z,45
2017-10-29T07:19:39.781Z,45
2017-10-29T07:20:40.056Z,50
2017-10-29T07:21:40.715Z,50
2017-10-29T07:22:40.029Z,50
2017-10-29T07:23:40.334Z,50
2017-10-29T07:24:40.321Z,50
2017-10-29T07:25:39.647Z,50
2017-10-29T07:26:39.632Z,55
2017-10-29T07:27:39.606Z,55
2017-10-29T07:28:39.587Z,60
2017-10-29T07:29:40.575Z,55
2017-10-29T07:30:40.092Z,60
2017-10-29T07:31:40.204Z,60
2017-10-29T07:32:39.855Z,60
2017-10-29T07:33:39.943Z,60
2017-10-29T07:34:40.160Z,65
2017-10-29T07:35:39.811Z,85
2017-10-29T07:36:39.781Z,80
2017-10-29T07:37:39.773Z,90
2017-10-29T07:38:40.085Z,105
2017-10-29T07:39:40.076Z,95
2017-10-29T07:40:39.725Z,80
2017-10-29T07:41:40.388Z,90
2017-10-29T07:42:39.017Z,110
2017-10-29T07:43:40.438Z,105
2017-10-29T07:44:39.655Z,100
2017-10-29T07:45:39.640Z,95
2017-10-29T07:46:39.964Z,90
2017-10-29T07:47:39.268Z,80
2017-10-29T07:48:39.594Z,80
2017-10-29T07:49:39.240Z,80
2017-10-29T07:50:39.554Z,70
2017-10-29T07:51:39.531Z,70
2017-10-29T07:52:39.867Z,65
2017-10-29T07:53:39.277Z,65
2017-10-29T07:54:39.496Z,70
2017-10-29T07:55:39.476Z,75
2017-10-29T07:56:40.174Z,85
2017-10-29T07:57:39.784Z,85
2017-10-29T07:58:40.357Z,80
2017-10-29T07:59:40.079Z,85
2017-10-29T08:00:40.069Z,80
2017-10-29T08:01:39.384Z,80
2017-10-29T08:02:39.717Z,80
2017-10-29T08:03:39.673Z,90
2017-10-29T08:04:39.791Z,90
2017-10-29T08:05:38.985Z,90
2017-10-29T08:06:39.651Z,95
2017-10-29T08:07:39.286Z,90
2017-10-29T08:08:39.280Z,95
2017-10-29T08:09:39.239Z,95
2017-10-29T08:10:39.910Z,95
2017-10-29T08:11:38.896Z,100
2017-10-29T08:12:39.534Z,95
2017-10-29T08:13:39.528Z,85
2017-10-29T08:14:39.261Z,95
2017-10-29T08:15:39.154Z,110
2017-10-29T08:16:38.487Z,125
2017-10-29T08:17:39.789Z,160
2017-10-29T08:18:38.754Z,130
2017-10-29T08:19:39.193Z,130
2017-10-29T08:20:39.080Z,110
2017-10-29T08:21:39.377Z,110
2017-10-29T08:22:39.703Z,115
2017-10-29T08:23:38.682Z,115
2017-10-29T08:24:39.093Z,120
2017-10-29T08:25:39.329Z,110
2017-10-29T08:26:38.660Z,120
2017-10-29T08:27:39.294Z,140
2017-10-29T08:28:38.945Z,135
2017-10-29T08:29:39.277Z,115
2017-10-29T08:30:39.807Z,120
2017-10-29T08:31:38.562Z,115
2017-10-29T08:32:39.213Z,115
2017-10-29T08:33:38.869Z,110
2017-10-29T08:34:38.608Z,105
2017-10-29T08:35:39.160Z,140
2017-10-29T08:36:39.144Z,120
2017-10-29T08:37:38.799Z,150
2017-10-29T08:38:39.447Z,120
2017-10-29T08:39:39.193Z,115
2017-10-29T08:40:38.777Z,115
2017-10-29T08:41:39.060Z,115
2017-10-29T08:42:38.379Z,115
2017-10-29T08:43:39.027Z,145
2017-10-29T08:44:38.698Z,140
2017-10-29T08:45:38.680Z,120
2017-10-29T08:46:39.317Z,115
2017-10-29T08:47:38.641Z,115
2017-10-29T08:48:38.946Z,120
2017-10-29T08:49:38.607Z,125
2017-10-29T08:50:38.925Z,125
2017-10-29T08:51:38.939Z,125
2017-10-29T08:52:38.902Z,160
2017-10-29T08:53:38.532Z,135
2017-10-29T08:54:38.853Z,120
2017-10-29T08:55:38.156Z,155
2017-10-29T08:56:38.486Z,135
2017-10-29T08:57:38.473Z,140
2017-10-29T08:58:38.440Z,135
2017-10-29T08:59:38.436Z,240
2017-10-29T09:00:38.432Z,210
2017-10-29T09:01:38.399Z,225
2017-10-29T09:02:38.054Z,155
2017-10-29T09:03:38.370Z,210
2017-10-29T09:04:38.350Z,175
2017-10-29T09:05:39.079Z,150
2017-10-29T09:06:38.677Z,140
2017-10-29T09:07:38.517Z,145
2017-10-29T09:08:38.296Z,150
2017-10-29T09:09:38.625Z,140
2017-10-29T09:10:38.266Z,140
2017-10-29T09:11:37.586Z,145
2017-10-29T09:12:38.269Z,160
2017-10-29T09:13:38.466Z,210
2017-10-29T09:14:38.540Z,265
2017-10-29T09:15:38.203Z,205
2017-10-29T09:16:38.849Z,380
2017-10-29T09:17:38.494Z,120
2017-10-29T09:18:37.813Z,110
2017-10-29T09:19:37.457Z,125
2017-10-29T09:20:37.777Z,220
2017-10-29T09:21:38.426Z,320
2017-10-29T09:22:38.411Z,315
2017-10-29T09:23:38.406Z,205
2017-10-29T09:24:38.046Z,180
2017-10-29T09:25:38.043Z,175
2017-10-29T09:26:38.034Z,205
2017-10-29T09:27:37.681Z,205
2017-10-29T09:28:38.330Z,185
2017-10-29T09:29:38.329Z,175
2017-10-29T09:30:38.494Z,180
2017-10-29T09:31:37.952Z,135
2017-10-29T09:32:38.276Z,125
2017-10-29T09:33:38.252Z,185
2017-10-29T09:34:37.899Z,160
2017-10-29T09:35:37.556Z,195
2017-10-29T09:36:37.883Z,225
2017-10-29T09:37:37.871Z,195
2017-10-29T09:38:37.843Z,195
2017-10-29T09:39:38.510Z,225
2017-10-29T09:40:38.526Z,205
2017-10-29T09:41:38.140Z,165
2017-10-29T09:42:38.480Z,140
2017-10-29T09:43:37.768Z,145
2017-10-29T09:44:38.096Z,175
2017-10-29T09:45:37.738Z,200
2017-10-29T09:46:38.062Z,185
2017-10-29T09:47:37.724Z,160
2017-10-29T09:48:38.042Z,190
2017-10-29T09:49:38.356Z,210
2017-10-29T09:50:37.709Z,295
2017-10-29T09:51:37.700Z,165
2017-10-29T09:52:37.303Z,170
2017-10-29T09:53:37.492Z,265
2017-10-29T09:54:37.618Z,260
2017-10-29T09:55:37.251Z,250
2017-10-29T09:56:37.936Z,250
2017-10-29T09:57:37.250Z,235
2017-10-29T09:58:37.547Z,230
2017-10-29T09:59:37.206Z,240
2017-10-29T10:00:38.195Z,230
2017-10-29T10:01:37.172Z,240
2017-10-29T10:02:38.152Z,290
2017-10-29T10:03:37.814Z,265
2017-10-29T10:04:38.123Z,150
2017-10-29T10:05:37.119Z,130
2017-10-29T10:06:37.429Z,190
2017-10-29T10:07:36.761Z,230
2017-10-29T10:08:37.087Z,230
2017-10-29T10:09:37.400Z,210
2017-10-29T10:10:37.383Z,215
2017-10-29T10:11:37.373Z,200
2017-10-29T10:12:37.684Z,205
2017-10-29T10:13:37.010Z,225
2017-10-29T10:14:37.671Z,225
2017-10-29T10:15:37.303Z,255
2017-10-29T10:16:37.975Z,285
2017-10-29T10:17:37.284Z,265
2017-10-29T10:18:37.597Z,250
2017-10-29T10:19:37.264Z,260
2017-10-29T10:20:37.565Z,265
2017-10-29T10:21:37.580Z,250
2017-10-29T10:22:36.913Z,240
2017-10-29T10:23:37.537Z,240
2017-10-29T10:24:37.518Z,260
2017-10-29T10:25:37.518Z,240
2017-10-29T10:26:37.560Z,360
2017-10-29T10:27:37.157Z,440
2017-10-29T10:28:37.338Z,335
2017-10-29T10:29:37.444Z,235
2017-10-29T10:30:37.101Z,215
2017-10-29T10:31:37.463Z,215
2017-10-29T10:32:37.073Z,380
2017-10-29T10:33:37.772Z,325
2017-10-29T10:34:37.491Z,430
2017-10-29T10:35:37.042Z,460
2017-10-29T10:36:36.366Z,625
2017-10-29T10:37:36.668Z,425
2017-10-29T10:38:37.915Z,445
2017-10-29T10:39:37.009Z,335
2017-10-29T10:40:36.647Z,285
2017-10-29T10:41:37.293Z,235
2017-10-29T10:42:37.298Z,290
2017-10-29T10:43:37.270Z,670
2017-10-29T10:44:37.481Z,460
2017-10-29T10:45:37.601Z,225
2017-10-29T10:46:37.232Z,460
2017-10-29T10:47:36.217Z,240
2017-10-29T10:48:36.555Z,175
2017-10-29T10:49:36.863Z,145
2017-10-29T10:50:37.180Z,175
2017-10-29T10:51:37.176Z,535
2017-10-29T10:52:36.478Z,230
2017-10-29T10:53:37.141Z,175
2017-10-29T10:54:37.137Z,230
2017-10-29T10:55:37.119Z,220
2017-10-29T10:56:36.798Z,495
2017-10-29T10:57:37.104Z,205
2017-10-29T10:58:36.742Z,260
2017-10-29T10:59:37.070Z,290
2017-10-29T11:00:36.769Z,235
2017-10-29T11:01:36.705Z,240
2017-10-29T11:02:37.349Z,250
2017-10-29T11:03:36.688Z,225
2017-10-29T11:04:37.014Z,215
2017-10-29T11:05:36.658Z,230
2017-10-29T11:06:36.638Z,250
2017-10-29T11:07:36.619Z,245
2017-10-29T11:08:36.957Z,265
2017-10-29T11:09:37.284Z,170
2017-10-29T11:10:37.270Z,185
2017-10-29T11:11:36.581Z,260
2017-10-29T11:12:36.713Z,395
2017-10-29T11:13:36.216Z,265
2017-10-29T11:14:36.545Z,490
2017-10-29T11:15:36.854Z,375
2017-10-29T11:16:36.509Z,270
2017-10-29T11:17:36.500Z,215
2017-10-29T11:18:36.489Z,165
2017-10-29T11:19:36.138Z,120
2017-10-29T11:20:36.800Z,105
2017-10-29T11:21:36.776Z,95
2017-10-29T11:22:36.775Z,95
2017-10-29T11:23:36.783Z,80
2017-10-29T11:24:36.412Z,95
2017-10-29T11:25:36.728Z,105
2017-10-29T11:26:36.397Z,115
2017-10-29T11:27:36.049Z,105
2017-10-29T11:28:36.027Z,115
2017-10-29T11:29:36.679Z,155
2017-10-29T11:30:36.529Z,195
2017-10-29T11:31:36.329Z,260
2017-10-29T11:32:36.655Z,325
2017-10-29T11:33:36.287Z,380
2017-10-29T11:34:36.602Z,445
2017-10-29T11:35:36.589Z,310
2017-10-29T11:36:36.570Z,290
2017-10-29T11:37:36.275Z,265
2017-10-29T11:38:36.543Z,275
2017-10-29T11:39:35.585Z,560
2017-10-29T11:40:36.242Z,420
2017-10-29T11:41:36.157Z,465
2017-10-29T11:42:35.835Z,440
2017-10-29T11:43:36.137Z,805
2017-10-29T11:44:36.127Z,865
2017-10-29T11:45:36.778Z,495
2017-10-29T11:46:36.108Z,560
2017-10-29T11:47:36.087Z,905
2017-10-29T11:48:36.740Z,680
2017-10-29T11:49:36.067Z,870
2017-10-29T11:50:35.714Z,905
2017-10-29T11:51:35.708Z,925
2017-10-29T11:52:36.193Z,910
2017-10-29T11:53:36.044Z,910
2017-10-29T11:54:36.346Z,930
2017-10-29T11:55:36.001Z,940
2017-10-29T11:56:35.979Z,935
2017-10-29T11:57:35.632Z,940
2017-10-29T11:58:35.973Z,905
2017-10-29T11:59:35.619Z,845
2017-10-29T12:00:35.943Z,885
2017-10-29T12:01:36.282Z,915
2017-10-29T12:02:35.925Z,880
2017-10-29T12:03:36.265Z,865
2017-10-29T12:04:35.577Z,660
2017-10-29T12:05:36.583Z,950
2017-10-29T12:06:35.904Z,975
2017-10-29T12:07:36.237Z,915
2017-10-29T12:08:36.241Z,890
2017-10-29T12:09:35.886Z,915
2017-10-29T12:10:36.539Z,920
2017-10-29T12:11:35.862Z,925
2017-10-29T12:12:35.868Z,935
2017-10-29T12:13:35.849Z,950
2017-10-29T12:14:36.175Z,930
2017-10-29T12:15:36.177Z,925
2017-10-29T12:16:36.509Z,930
2017-10-29T12:17:35.835Z,925
2017-10-29T12:18:36.163Z,935
2017-10-29T12:19:35.157Z,905
2017-10-29T12:20:35.479Z,935
2017-10-29T12:21:35.834Z,910
2017-10-29T12:22:35.804Z,910
2017-10-29T12:23:35.496Z,895
2017-10-29T12:24:36.138Z,870
2017-10-29T12:25:35.794Z,855
2017-10-29T12:26:35.441Z,835
2017-10-29T12:27:36.122Z,860
2017-10-29T12:28:36.438Z,235
2017-10-29T12:29:36.583Z,895
2017-10-29T12:30:36.481Z,915
2017-10-29T12:31:36.141Z,880
2017-10-29T12:32:35.746Z,880
2017-10-29T12:33:35.761Z,880
2017-10-29T12:34:36.077Z,900
2017-10-29T12:35:36.064Z,965
2017-10-29T12:36:36.054Z,925
2017-10-29T12:37:36.082Z,880
2017-10-29T12:38:35.383Z,885
2017-10-29T12:39:36.069Z,890
2017-10-29T12:40:36.051Z,935
2017-10-29T12:41:36.044Z,895
2017-10-29T12:42:35.027Z,900
2017-10-29T12:43:35.735Z,920
2017-10-29T12:44:35.676Z,945
2017-10-29T12:45:36.019Z,385
2017-10-29T12:46:35.673Z,300
2017-10-29T12:47:35.716Z,905
2017-10-29T12:48:36.005Z,910
2017-10-29T12:49:36.001Z,985
2017-10-29T12:50:35.656Z,860
2017-10-29T12:51:35.318Z,885
2017-10-29T12:52:35.990Z,365
2017-10-29T12:53:35.313Z,995
2017-10-29T12:54:35.653Z,390
2017-10-29T12:55:36.329Z,920
2017-10-29T12:56:35.303Z,900
2017-10-29T12:57:35.300Z,835
2017-10-29T12:58:35.287Z,815
2017-10-29T12:59:35.964Z,780
2017-10-29T13:00:36.290Z,750
2017-10-29T13:01:35.950Z,280
2017-10-29T13:02:34.935Z,850
2017-10-29T13:03:35.944Z,785
2017-10-29T13:04:36.273Z,775
2017-10-29T13:05:35.590Z,775
2017-10-29T13:06:36.262Z,505
2017-10-29T13:07:35.935Z,770
2017-10-29T13:08:35.930Z,780
2017-10-29T13:09:34.911Z,670
2017-10-29T13:10:35.233Z,775
2017-10-29T13:11:35.897Z,810
2017-10-29T13:12:35.235Z,270
2017-10-29T13:13:35.897Z,160
2017-10-29T13:14:35.277Z,170
2017-10-29T13:15:35.219Z,645
2017-10-29T13:16:36.215Z,225
2017-10-29T13:17:35.204Z,730
2017-10-29T13:18:35.874Z,670
2017-10-29T13:19:35.198Z,280
2017-10-29T13:20:35.855Z,190
2017-10-29T13:21:35.865Z,235
2017-10-29T13:22:36.173Z,210
2017-10-29T13:23:35.506Z,310
2017-10-29T13:24:35.506Z,425
2017-10-29T13:25:35.830Z,200
2017-10-29T13:26:36.157Z,205
2017-10-29T13:27:36.155Z,715
2017-10-29T13:28:35.829Z,670
2017-10-29T13:29:36.146Z,655
2017-10-29T13:30:35.463Z,650
2017-10-29T13:31:35.459Z,620
2017-10-29T13:32:35.115Z,615
2017-10-29T13:33:35.808Z,600
2017-10-29T13:34:35.763Z,590
2017-10-29T13:35:36.097Z,585
2017-10-29T13:36:35.752Z,585
2017-10-29T13:37:35.746Z,555
2017-10-29T13:38:36.069Z,550
2017-10-29T13:39:35.745Z,535
2017-10-29T13:40:35.052Z,535
2017-10-29T13:41:35.724Z,530
2017-10-29T13:42:35.382Z,535
2017-10-29T13:43:36.034Z,505
2017-10-29T13:44:35.029Z,475
2017-10-29T13:45:35.683Z,420
2017-10-29T13:46:35.348Z,355
2017-10-29T13:47:35.341Z,355
2017-10-29T13:48:35.681Z,355
2017-10-29T13:49:35.042Z,355
2017-10-29T13:50:35.660Z,350
2017-10-29T13:51:35.637Z,400
2017-10-29T13:52:35.857Z,360
2017-10-29T13:53:35.310Z,345
2017-10-29T13:54:35.638Z,345
2017-10-29T13:55:35.623Z,270
2017-10-29T13:56:35.611Z,255
2017-10-29T13:57:35.974Z,265
2017-10-29T13:58:35.930Z,360
2017-10-29T13:59:34.924Z,440
2017-10-29T14:00:35.253Z,445
2017-10-29T14:01:34.586Z,290
2017-10-29T14:02:35.444Z,295
2017-10-29T14:03:35.893Z,190
2017-10-29T14:04:35.560Z,175
2017-10-29T14:05:34.788Z,215
2017-10-29T14:06:35.554Z,305
2017-10-29T14:07:35.888Z,145
2017-10-29T14:08:35.190Z,280
2017-10-29T14:09:35.177Z,160
2017-10-29T14:10:35.498Z,240
2017-10-29T14:11:35.499Z,265
2017-10-29T14:12:35.492Z,305
2017-10-29T14:13:35.144Z,280
2017-10-29T14:14:34.796Z,200
2017-10-29T14:15:35.186Z,265
2017-10-29T14:16:35.122Z,270